Hlavní strana
METAR-TAF:

METAR-TAF

Letiště :

Saga, Japonsko

zeměpisná šířka: 33-09N, zeměpisná délka: 130-18E, výška: 2 m

Aktuální stav počasí

Zpráva byla vytvořena před 47 minutami, v 02:00 UTC
Jižní vítr 6 kt
Teplota 14°C
Vlhkost vzduchu 67%
Tlak 1017 hPa
Viditelnost 10 km a více
Skoro jasno ve výšce 4000 ft

METAR: RJFS 070200Z 19006KT 9999 FEW040 14/08 Q1017

Čas: 11:47 (02:47 UTC)

Předpověď počasí

Zpráva byla vytvořena před 3 hodinami a 41 minutami, v 23:06 UTC
Předpověď platná od 07 v 00 UTC do 08 v 06 UTC
Jižní vítr 7 kt
Viditelnost 10 km a více
Skoro jasno ve výšce 3500 ft
Změna
od 07 v 05 UTC do 07 v 07 UTC
Západoseverozápadní vítr 12 kt
Změna
od 08 v 00 UTC do 08 v 03 UTC
Jižní vítr 5 kt

TAF: RJFS 062306Z 0700/0806 18007KT 9999 FEW035 BECMG 0705/0707 29012KT BECMG 0800/0803 18005KT

Stav a předpovědi počasí z více než 4 000 letišť (zprávy METAR a TAF).

Červené a žluté tečky na mapě představují dostupné meteorologické stanice.

Když kurzor umístíte na tečku, zobrazí se název stanice.

Pak kliknutím zobrazíte stav a předpověď počasí.

Chcete-li změnit mapu, kliknutím na zelené tlačítko se znaménkem +mapu přiblížíte, kliknutím na zelené tlačítko se znaménkem – mapu oddálíte a kliknutím na zelené šipky přejdete na sousední mapy.


METAR-TAF: